Terminal Aerodrome Forecast
Issued by NWS

Current Version | Previous Version | Text Only | Print | Product List | Glossary Off
Versions: 1 2 3 4 5 6 7 8 9 10 11 12 13 14 15 16 17

840
FTUS41 KPBZ 041026 AAC
TAFMGW
TAF AMD
KMGW 041026Z 0410/0506 29004KT P6SM BKN035
     FM041400 26008KT P6SM OVC025
     FM041700 28007KT P6SM BKN035=

USA.gov is the U.S. government's official web portal to all federal, state and local government web resources and services.